Endurance — WDF8331 — position and weather

sailwx.info

Track history (hours):
 
Tides and Currents Weather Stations Pressure Air Temp Water Temp Dewpoint Dewpoint Depression Visibility Wind Speed Wind Dir Waves Ship Positions

Endurance

Owner: Enterprise Marine Services, LLC, San Antonio, TX. More information available from US FCC via Universal Licensing System and Coast Guard Vessel Documentation Center.

Last reported at 2017-Dec-10 10:02 UTC. Time now 2017-Dec-13 22:27 UTC.
Position N 29°48' W 091°49'.

Length 26 m; draft 10 m.

Type: Tug. MMSI: 367493740.

Date/timePositionNaut miles runAvg speedWind from/ knotsBaromVisibWave heightAir tempDewpointWater temp
2017-Dec-10 10:02N 29°48' W 091°49'0 6.4
2017-Dec-10 10:00N 29°48' W 091°49'7 5.0
2017-Dec-10 08:38N 29°51' W 091°56'1 6.0
2017-Dec-10 08:30N 29°50' W 091°57'3 6.1
2017-Dec-10 08:01N 29°50' W 092°00'3 6.1
2017-Dec-10 07:30N 29°49' W 092°04'3 6.3
2017-Dec-10 07:01N 29°47' W 092°07'3 5.0
2017-Dec-10 06:31N 29°47' W 092°10'3 5.1
2017-Dec-10 06:00N 29°47' W 092°13'3 5.7
2017-Dec-10 05:31N 29°48' W 092°16'1 2.7
2017-Dec-10 05:01N 29°49' W 092°17'3 5.4
2017-Dec-10 04:30N 29°50' W 092°20'3 5.3
2017-Dec-10 03:58N 29°52' W 092°22'3 6.0
2017-Dec-10 03:30N 29°53' W 092°25'3 6.6
2017-Dec-10 03:00N 29°54' W 092°29'33 5.3
2017-Dec-09 20:48N 29°56' W 093°07'2 6.0
2017-Dec-09 20:30N 29°56' W 093°09'3 5.9
2017-Dec-09 20:00N 29°58' W 093°11'3 5.8
2017-Dec-09 19:31N 30°00' W 093°14'2 4.3
2017-Dec-09 19:01N 30°02' W 093°15'3 5.3
2017-Dec-09 18:30N 30°04' W 093°16'2 3.9
2017-Dec-09 18:00N 30°06' W 093°18'1 1.5
2017-Dec-09 17:30N 30°06' W 093°19'0 0.1
2017-Dec-09 17:01N 30°06' W 093°19'0 0.0
2017-Dec-09 16:31N 30°06' W 093°19'0 0.1
2017-Dec-09 16:01N 30°06' W 093°19'0 0.4
2017-Dec-09 15:30N 30°06' W 093°19'2 4.4
2017-Dec-09 15:01N 30°04' W 093°21'2 3.4
2017-Dec-09 14:30N 30°04' W 093°23'2 4.7
2017-Dec-09 14:00N 30°04' W 093°25'2 4.9
2017-Dec-09 13:31N 30°04' W 093°28'3 5.9
2017-Dec-09 13:01N 30°04' W 093°31'3 6.5
2017-Dec-09 12:31N 30°04' W 093°35'3 6.7
2017-Dec-09 12:01N 30°04' W 093°39'3 6.7
2017-Dec-09 11:31N 30°03' W 093°43'5 7.0
2017-Dec-09 10:49N 29°60' W 093°47'64 4.5
2017-Dec-08 20:38N 29°29' W 094°52'1 8.4
2017-Dec-08 20:28N 29°30' W 094°52'4 8.2
2017-Dec-08 20:00N 29°33' W 094°55'4 7.8
2017-Dec-08 19:30N 29°37' W 094°57'4 8.0
2017-Dec-08 19:00N 29°40' W 094°59'4 7.5
2017-Dec-08 18:30N 29°43' W 095°01'4 7.7
2017-Dec-08 18:00N 29°46' W 095°05'1 2.7
2017-Dec-08 17:31N 29°47' W 095°05'0 0.3
2017-Dec-08 17:01N 29°47' W 095°05'0 0.1
2017-Dec-08 16:09N 29°47' W 095°05'1 1.0
2017-Dec-08 15:31N 29°47' W 095°04'0 2.8
2017-Dec-08 15:29N 29°47' W 095°05'2 3.8
2017-Dec-08 14:49N 29°46' W 095°07'1 2.4
2017-Dec-08 14:26N 29°45' W 095°06'2 4.7
2017-Dec-08 13:57N 29°47' W 095°04'0 0.0
2017-Dec-08 04:20N 29°47' W 095°05'1 3.2
2017-Dec-08 03:55N 29°46' W 095°05'2 4.2
2017-Dec-08 03:29N 29°46' W 095°07'1 0.5
2017-Dec-08 02:09N 29°46' W 095°06'1 3.4
2017-Dec-08 01:59N 29°45' W 095°06'2 4.3
2017-Dec-08 01:28N 29°47' W 095°04'1 1.7
2017-Dec-08 01:00N 29°47' W 095°05'0 0.1
2017-Dec-07 22:47N 29°47' W 095°05'1 1.4
2017-Dec-07 21:49N 29°46' W 095°05'1 3.1
2017-Dec-07 21:22N 29°46' W 095°07'0 0.0
2017-Dec-07 20:57N 29°46' W 095°07'0 0.0
2017-Dec-07 20:30N 29°46' W 095°07'1 2.6
2017-Dec-07 20:00N 29°44' W 095°07'3 5.4
2017-Dec-07 19:28N 29°45' W 095°10'2 3.5
2017-Dec-07 18:54N 29°44' W 095°12'0 0.0
2017-Dec-07 18:28N 29°44' W 095°12'0 0.2
2017-Dec-07 17:58N 29°44' W 095°12'0 0.4
2017-Dec-07 17:31N 29°44' W 095°12'0 0.0
2017-Dec-07 17:00N 29°44' W 095°12'0 0.0
2017-Dec-07 16:31N 29°44' W 095°12'0 0.0
2017-Dec-07 16:00N 29°44' W 095°12'0 0.0
2017-Dec-07 15:30N 29°44' W 095°12'0 0.0
2017-Dec-07 15:00N 29°44' W 095°12'0 0.0
2017-Dec-07 14:31N 29°44' W 095°12'0 0.0
2017-Dec-07 14:00N 29°44' W 095°12'0 0.0
2017-Dec-07 13:31N 29°44' W 095°12'0 0.0
2017-Dec-07 13:00N 29°44' W 095°12'0 0.0
2017-Dec-07 12:31N 29°44' W 095°12'0 0.0
2017-Dec-07 12:01N 29°44' W 095°12'0 0.0
2017-Dec-07 11:30N 29°44' W 095°12'0 0.0
2017-Dec-07 11:00N 29°44' W 095°12'0 0.0
2017-Dec-07 10:30N 29°44' W 095°12'0 0.4
2017-Dec-07 10:00N 29°44' W 095°12'0 0.4
2017-Dec-07 09:31N 29°44' W 095°12'0 0.0
2017-Dec-07 09:00N 29°44' W 095°12'0 0.0
2017-Dec-07 08:31N 29°44' W 095°12'0 0.0
2017-Dec-07 08:00N 29°44' W 095°12'0 0.0
2017-Dec-07 07:30N 29°44' W 095°12'0 0.0
2017-Dec-07 07:00N 29°44' W 095°12'0 0.0
2017-Dec-07 06:30N 29°44' W 095°12'0 0.0
2017-Dec-07 05:56N 29°44' W 095°12'0 0.0
2017-Dec-07 05:30N 29°44' W 095°12'0 0.0
2017-Dec-07 05:00N 29°44' W 095°12'0 0.0
2017-Dec-07 04:31N 29°44' W 095°12'0 0.1
2017-Dec-07 02:53N 29°44' W 095°12'0 0.0
2017-Dec-07 02:29N 29°44' W 095°12'0 0.0
2017-Dec-07 01:54N 29°44' W 095°12'0 0.0
2017-Dec-07 01:18N 29°44' W 095°12'0 0.0
2017-Dec-07 00:48N 29°44' W 095°12'0 0.0
2017-Dec-07 00:30N 29°44' W 095°12'0 0.3
2017-Dec-07 00:00N 29°44' W 095°12'0 0.0
2017-Dec-06 23:31N 29°44' W 095°12'0 0.0
2017-Dec-06 23:00N 29°44' W 095°12'0 0.0
2017-Dec-06 22:29N 29°44' W 095°12'0 0.0
2017-Dec-06 22:00N 29°44' W 095°12'0 0.0
2017-Dec-06 21:30N 29°44' W 095°12'  
2017-Dec-04 06:13N 30°04' W 093°36'0 1.1
2017-Dec-04 06:00N 30°04' W 093°35'1 0.4
2017-Dec-04 04:32N 30°04' W 093°35'1 3.7
2017-Dec-04 04:15N 30°04' W 093°33'1 2.1
2017-Dec-04 03:35N 30°04' W 093°32'0 5.7
2017-Dec-04 03:31N 30°04' W 093°31'3 6.2
2017-Dec-04 03:01N 30°04' W 093°28'3 6.2
2017-Dec-04 02:31N 30°04' W 093°24'3 5.3
2017-Dec-04 02:01N 30°04' W 093°21'3 5.4
2017-Dec-04 01:31N 30°06' W 093°19'1 2.7
2017-Dec-04 01:01N 30°05' W 093°18'0 0.7
2017-Dec-04 00:29N 30°05' W 093°17'1 2.7
2017-Dec-03 23:59N 30°04' W 093°16'0 0.0
2017-Dec-03 23:26N 30°04' W 093°16'0 0.0
2017-Dec-03 22:56N 30°04' W 093°16'0 0.0
2017-Dec-03 22:29N 30°04' W 093°16'0 0.0
2017-Dec-03 22:01N 30°04' W 093°16'0 0.3
2017-Dec-03 21:29N 30°04' W 093°16'3 5.6
2017-Dec-03 21:01N 30°02' W 093°14'3 6.2
2017-Dec-03 20:31N 29°59' W 093°12'3 6.8
2017-Dec-03 20:00N 29°56' W 093°10'3 6.2
2017-Dec-03 19:31N 29°56' W 093°06'35 2.1
2017-Dec-03 03:17N 29°53' W 092°27'4 4.1
2017-Dec-03 02:25N 29°52' W 092°23'2 4.7
2017-Dec-03 02:00N 29°51' W 092°21'3 5.3
2017-Dec-03 01:31N 29°50' W 092°18'3 5.2
2017-Dec-03 01:00N 29°48' W 092°16'3 5.6
2017-Dec-03 00:31N 29°47' W 092°13'1 2.4
2017-Dec-03 00:01N 29°47' W 092°12'3 5.0
2017-Dec-02 23:31N 29°47' W 092°09'3 6.2
2017-Dec-02 23:00N 29°48' W 092°05'3 6.2
2017-Dec-02 22:30N 29°49' W 092°02'3 6.8
2017-Dec-02 22:00N 29°50' W 091°58'  
Track history (hours):
 
Tides and Currents Weather Stations Pressure Air Temp Water Temp Dewpoint Dewpoint Depression Visibility Wind Speed Wind Dir Waves Ship Positions

Endurance

Owner: Enterprise Marine Services, LLC, San Antonio, TX. More information available from US FCC via Universal Licensing System and Coast Guard Vessel Documentation Center.

Last reported at 2017-Dec-10 10:02 UTC. Time now 2017-Dec-13 22:27 UTC.
Position N 29°48' W 091°49'.

Length 26 m; draft 10 m.

Type: Tug. MMSI: 367493740.

Date/timePositionNaut miles runAvg speedWind from/ knotsBaromVisibWave heightAir tempDewpointWater temp
2017-Dec-10 10:02N 29°48' W 091°49'0 6.4
2017-Dec-10 10:00N 29°48' W 091°49'7 5.0
2017-Dec-10 08:38N 29°51' W 091°56'1 6.0
2017-Dec-10 08:30N 29°50' W 091°57'3 6.1
2017-Dec-10 08:01N 29°50' W 092°00'3 6.1
2017-Dec-10 07:30N 29°49' W 092°04'3 6.3
2017-Dec-10 07:01N 29°47' W 092°07'3 5.0
2017-Dec-10 06:31N 29°47' W 092°10'3 5.1
2017-Dec-10 06:00N 29°47' W 092°13'3 5.7
2017-Dec-10 05:31N 29°48' W 092°16'1 2.7
2017-Dec-10 05:01N 29°49' W 092°17'3 5.4
2017-Dec-10 04:30N 29°50' W 092°20'3 5.3
2017-Dec-10 03:58N 29°52' W 092°22'3 6.0
2017-Dec-10 03:30N 29°53' W 092°25'3 6.6
2017-Dec-10 03:00N 29°54' W 092°29'33 5.3
2017-Dec-09 20:48N 29°56' W 093°07'2 6.0
2017-Dec-09 20:30N 29°56' W 093°09'3 5.9
2017-Dec-09 20:00N 29°58' W 093°11'3 5.8
2017-Dec-09 19:31N 30°00' W 093°14'2 4.3
2017-Dec-09 19:01N 30°02' W 093°15'3 5.3
2017-Dec-09 18:30N 30°04' W 093°16'2 3.9
2017-Dec-09 18:00N 30°06' W 093°18'1 1.5
2017-Dec-09 17:30N 30°06' W 093°19'0 0.1
2017-Dec-09 17:01N 30°06' W 093°19'0 0.0
2017-Dec-09 16:31N 30°06' W 093°19'0 0.1
2017-Dec-09 16:01N 30°06' W 093°19'0 0.4
2017-Dec-09 15:30N 30°06' W 093°19'2 4.4
2017-Dec-09 15:01N 30°04' W 093°21'2 3.4
2017-Dec-09 14:30N 30°04' W 093°23'2 4.7
2017-Dec-09 14:00N 30°04' W 093°25'2 4.9
2017-Dec-09 13:31N 30°04' W 093°28'3 5.9
2017-Dec-09 13:01N 30°04' W 093°31'3 6.5
2017-Dec-09 12:31N 30°04' W 093°35'3 6.7
2017-Dec-09 12:01N 30°04' W 093°39'3 6.7
2017-Dec-09 11:31N 30°03' W 093°43'5 7.0
2017-Dec-09 10:49N 29°60' W 093°47'64 4.5
2017-Dec-08 20:38N 29°29' W 094°52'1 8.4
2017-Dec-08 20:28N 29°30' W 094°52'4 8.2
2017-Dec-08 20:00N 29°33' W 094°55'4 7.8
2017-Dec-08 19:30N 29°37' W 094°57'4 8.0
2017-Dec-08 19:00N 29°40' W 094°59'4 7.5
2017-Dec-08 18:30N 29°43' W 095°01'4 7.7
2017-Dec-08 18:00N 29°46' W 095°05'1 2.7
2017-Dec-08 17:31N 29°47' W 095°05'0 0.3
2017-Dec-08 17:01N 29°47' W 095°05'0 0.1
2017-Dec-08 16:09N 29°47' W 095°05'1 1.0
2017-Dec-08 15:31N 29°47' W 095°04'0 2.8
2017-Dec-08 15:29N 29°47' W 095°05'2 3.8
2017-Dec-08 14:49N 29°46' W 095°07'1 2.4
2017-Dec-08 14:26N 29°45' W 095°06'2 4.7
2017-Dec-08 13:57N 29°47' W 095°04'0 0.0
2017-Dec-08 04:20N 29°47' W 095°05'1 3.2
2017-Dec-08 03:55N 29°46' W 095°05'2 4.2
2017-Dec-08 03:29N 29°46' W 095°07'1 0.5
2017-Dec-08 02:09N 29°46' W 095°06'1 3.4
2017-Dec-08 01:59N 29°45' W 095°06'2 4.3
2017-Dec-08 01:28N 29°47' W 095°04'1 1.7
2017-Dec-08 01:00N 29°47' W 095°05'0 0.1
2017-Dec-07 22:47N 29°47' W 095°05'1 1.4
2017-Dec-07 21:49N 29°46' W 095°05'1 3.1
2017-Dec-07 21:22N 29°46' W 095°07'0 0.0
2017-Dec-07 20:57N 29°46' W 095°07'0 0.0
2017-Dec-07 20:30N 29°46' W 095°07'1 2.6
2017-Dec-07 20:00N 29°44' W 095°07'3 5.4
2017-Dec-07 19:28N 29°45' W 095°10'2 3.5
2017-Dec-07 18:54N 29°44' W 095°12'0 0.0
2017-Dec-07 18:28N 29°44' W 095°12'0 0.2
2017-Dec-07 17:58N 29°44' W 095°12'0 0.4
2017-Dec-07 17:31N 29°44' W 095°12'0 0.0
2017-Dec-07 17:00N 29°44' W 095°12'0 0.0
2017-Dec-07 16:31N 29°44' W 095°12'0 0.0
2017-Dec-07 16:00N 29°44' W 095°12'0 0.0
2017-Dec-07 15:30N 29°44' W 095°12'0 0.0
2017-Dec-07 15:00N 29°44' W 095°12'0 0.0
2017-Dec-07 14:31N 29°44' W 095°12'0 0.0
2017-Dec-07 14:00N 29°44' W 095°12'0 0.0
2017-Dec-07 13:31N 29°44' W 095°12'0 0.0
2017-Dec-07 13:00N 29°44' W 095°12'0 0.0
2017-Dec-07 12:31N 29°44' W 095°12'0 0.0
2017-Dec-07 12:01N 29°44' W 095°12'0 0.0
2017-Dec-07 11:30N 29°44' W 095°12'0 0.0
2017-Dec-07 11:00N 29°44' W 095°12'0 0.0
2017-Dec-07 10:30N 29°44' W 095°12'0 0.4
2017-Dec-07 10:00N 29°44' W 095°12'0 0.4
2017-Dec-07 09:31N 29°44' W 095°12'0 0.0
2017-Dec-07 09:00N 29°44' W 095°12'0 0.0
2017-Dec-07 08:31N 29°44' W 095°12'0 0.0
2017-Dec-07 08:00N 29°44' W 095°12'0 0.0
2017-Dec-07 07:30N 29°44' W 095°12'0 0.0
2017-Dec-07 07:00N 29°44' W 095°12'0 0.0
2017-Dec-07 06:30N 29°44' W 095°12'0 0.0
2017-Dec-07 05:56N 29°44' W 095°12'0 0.0
2017-Dec-07 05:30N 29°44' W 095°12'0 0.0
2017-Dec-07 05:00N 29°44' W 095°12'0 0.0
2017-Dec-07 04:31N 29°44' W 095°12'0 0.1
2017-Dec-07 02:53N 29°44' W 095°12'0 0.0
2017-Dec-07 02:29N 29°44' W 095°12'0 0.0
2017-Dec-07 01:54N 29°44' W 095°12'0 0.0
2017-Dec-07 01:18N 29°44' W 095°12'0 0.0
2017-Dec-07 00:48N 29°44' W 095°12'0 0.0
2017-Dec-07 00:30N 29°44' W 095°12'0 0.3
2017-Dec-07 00:00N 29°44' W 095°12'0 0.0
2017-Dec-06 23:31N 29°44' W 095°12'0 0.0
2017-Dec-06 23:00N 29°44' W 095°12'0 0.0
2017-Dec-06 22:29N 29°44' W 095°12'0 0.0
2017-Dec-06 22:00N 29°44' W 095°12'0 0.0
2017-Dec-06 21:30N 29°44' W 095°12'  
2017-Dec-04 06:13N 30°04' W 093°36'0 1.1
2017-Dec-04 06:00N 30°04' W 093°35'1 0.4
2017-Dec-04 04:32N 30°04' W 093°35'1 3.7
2017-Dec-04 04:15N 30°04' W 093°33'1 2.1
2017-Dec-04 03:35N 30°04' W 093°32'0 5.7
2017-Dec-04 03:31N 30°04' W 093°31'3 6.2
2017-Dec-04 03:01N 30°04' W 093°28'3 6.2
2017-Dec-04 02:31N 30°04' W 093°24'3 5.3
2017-Dec-04 02:01N 30°04' W 093°21'3 5.4
2017-Dec-04 01:31N 30°06' W 093°19'1 2.7
2017-Dec-04 01:01N 30°05' W 093°18'0 0.7
2017-Dec-04 00:29N 30°05' W 093°17'1 2.7
2017-Dec-03 23:59N 30°04' W 093°16'0 0.0
2017-Dec-03 23:26N 30°04' W 093°16'0 0.0
2017-Dec-03 22:56N 30°04' W 093°16'0 0.0
2017-Dec-03 22:29N 30°04' W 093°16'0 0.0
2017-Dec-03 22:01N 30°04' W 093°16'0 0.3
2017-Dec-03 21:29N 30°04' W 093°16'3 5.6
2017-Dec-03 21:01N 30°02' W 093°14'3 6.2
2017-Dec-03 20:31N 29°59' W 093°12'3 6.8
2017-Dec-03 20:00N 29°56' W 093°10'3 6.2
2017-Dec-03 19:31N 29°56' W 093°06'35 2.1
2017-Dec-03 03:17N 29°53' W 092°27'4 4.1
2017-Dec-03 02:25N 29°52' W 092°23'2 4.7
2017-Dec-03 02:00N 29°51' W 092°21'3 5.3
2017-Dec-03 01:31N 29°50' W 092°18'3 5.2
2017-Dec-03 01:00N 29°48' W 092°16'3 5.6
2017-Dec-03 00:31N 29°47' W 092°13'1 2.4
2017-Dec-03 00:01N 29°47' W 092°12'3 5.0
2017-Dec-02 23:31N 29°47' W 092°09'3 6.2
2017-Dec-02 23:00N 29°48' W 092°05'3 6.2
2017-Dec-02 22:30N 29°49' W 092°02'3 6.8
2017-Dec-02 22:00N 29°50' W 091°58'  

Dump ship's entire track history